Terminal Aerodrome Forecast
Issued by NWS Pendleton, OR

Home | Current Version | Previous Version | Text Only | Print | Product List | Glossary On
Versions: 1 2 3 4 5 6 7 8 9 10 11 12 13 14 15 16 17
000
FTUS46 KPDT 241100
TAFPDT
TAF
KPDT 241120Z 2412/2512 12005KT P6SM FEW060 SCT080 OVC120
     FM241500 VRB04KT P6SM OVC080
     FM242100 03007KT P6SM -RA BKN060 OVC080
     FM242300 03007KT P6SM -RA OVC040
      TEMPO 2423/2502 5SM RA OVC030
     FM250200 VRB05KT P6SM -SHRA BKN050 OVC080
     FM250600 09005KT P6SM FEW030 BKN250
     FM251000 11005KT 5SM BR SCT030 BKN250=

USA.gov is the U.S. government's official web portal to all federal, state and local government web resources and services.